sensor_id;sensor_type;location;lat;lon;timestamp;temperature;humidity
37322;DHT22;23697;48.684;9.032;2023-02-01T00:02:17;2.20;90.50
37322;DHT22;23697;48.684;9.032;2023-02-01T00:04:44;2.20;90.60
37322;DHT22;23697;48.684;9.032;2023-02-01T00:07:10;2.20;90.60
37322;DHT22;23697;48.684;9.032;2023-02-01T00:09:37;2.20;90.60
37322;DHT22;23697;48.684;9.032;2023-02-01T00:12:06;2.20;90.60
37322;DHT22;23697;48.684;9.032;2023-02-01T00:14:32;2.10;90.60
37322;DHT22;23697;48.684;9.032;2023-02-01T00:17:04;2.20;90.70
37322;DHT22;23697;48.684;9.032;2023-02-01T00:19:32;2.20;90.70
37322;DHT22;23697;48.684;9.032;2023-02-01T00:21:59;2.10;90.70
37322;DHT22;23697;48.684;9.032;2023-02-01T00:24:26;2.20;90.80
37322;DHT22;23697;48.684;9.032;2023-02-01T00:26:53;2.10;90.80
37322;DHT22;23697;48.684;9.032;2023-02-01T00:29:21;2.10;90.80
37322;DHT22;23697;48.684;9.032;2023-02-01T00:31:50;2.10;90.80
37322;DHT22;23697;48.684;9.032;2023-02-01T00:34:16;2.20;90.90
37322;DHT22;23697;48.684;9.032;2023-02-01T00:36:44;2.10;90.90
37322;DHT22;23697;48.684;9.032;2023-02-01T00:39:11;2.10;90.90
37322;DHT22;23697;48.684;9.032;2023-02-01T00:41:38;2.10;90.90
37322;DHT22;23697;48.684;9.032;2023-02-01T00:44:05;2.10;91.00
37322;DHT22;23697;48.684;9.032;2023-02-01T00:46:34;2.10;91.00
37322;DHT22;23697;48.684;9.032;2023-02-01T00:49:01;2.10;91.00
37322;DHT22;23697;48.684;9.032;2023-02-01T00:51:29;2.10;91.00
37322;DHT22;23697;48.684;9.032;2023-02-01T00:53:56;2.10;91.00
37322;DHT22;23697;48.684;9.032;2023-02-01T00:56:23;2.10;91.00
37322;DHT22;23697;48.684;9.032;2023-02-01T00:58:50;2.00;91.00
37322;DHT22;23697;48.684;9.032;2023-02-01T01:01:19;2.10;91.10
37322;DHT22;23697;48.684;9.032;2023-02-01T01:03:49;2.00;91.00
37322;DHT22;23697;48.684;9.032;2023-02-01T01:06:20;2.00;91.00
37322;DHT22;23697;48.684;9.032;2023-02-01T01:08:47;2.00;91.00
37322;DHT22;23697;48.684;9.032;2023-02-01T01:11:16;2.00;91.00
37322;DHT22;23697;48.684;9.032;2023-02-01T01:13:45;2.10;91.00
37322;DHT22;23697;48.684;9.032;2023-02-01T01:16:12;2.10;91.10
37322;DHT22;23697;48.684;9.032;2023-02-01T01:18:39;2.10;91.10
37322;DHT22;23697;48.684;9.032;2023-02-01T01:21:09;2.10;91.10
37322;DHT22;23697;48.684;9.032;2023-02-01T01:23:37;2.00;91.10
37322;DHT22;23697;48.684;9.032;2023-02-01T01:26:07;2.10;91.10
37322;DHT22;23697;48.684;9.032;2023-02-01T01:28:34;2.10;91.10
37322;DHT22;23697;48.684;9.032;2023-02-01T01:31:02;2.10;91.10
37322;DHT22;23697;48.684;9.032;2023-02-01T01:33:29;2.10;91.10
37322;DHT22;23697;48.684;9.032;2023-02-01T01:35:55;2.00;91.10
37322;DHT22;23697;48.684;9.032;2023-02-01T01:38:24;2.00;91.10
37322;DHT22;23697;48.684;9.032;2023-02-01T01:40:50;2.10;91.20
37322;DHT22;23697;48.684;9.032;2023-02-01T01:43:19;2.10;91.20
37322;DHT22;23697;48.684;9.032;2023-02-01T01:45:48;2.10;91.10
37322;DHT22;23697;48.684;9.032;2023-02-01T01:48:20;2.10;91.10
37322;DHT22;23697;48.684;9.032;2023-02-01T01:50:54;2.10;91.20
37322;DHT22;23697;48.684;9.032;2023-02-01T01:53:25;2.00;91.20
37322;DHT22;23697;48.684;9.032;2023-02-01T01:55:56;2.10;91.20
37322;DHT22;23697;48.684;9.032;2023-02-01T01:58:26;2.10;91.20
37322;DHT22;23697;48.684;9.032;2023-02-01T02:00:54;2.10;91.20
37322;DHT22;23697;48.684;9.032;2023-02-01T02:03:23;2.10;91.20
37322;DHT22;23697;48.684;9.032;2023-02-01T02:05:54;2.10;91.20
37322;DHT22;23697;48.684;9.032;2023-02-01T02:08:22;2.10;91.20
37322;DHT22;23697;48.684;9.032;2023-02-01T02:10:51;2.00;91.20
37322;DHT22;23697;48.684;9.032;2023-02-01T02:13:29;2.10;91.30
37322;DHT22;23697;48.684;9.032;2023-02-01T02:16:06;2.10;91.30
37322;DHT22;23697;48.684;9.032;2023-02-01T02:18:39;2.10;91.30
37322;DHT22;23697;48.684;9.032;2023-02-01T02:21:18;2.10;91.30
37322;DHT22;23697;48.684;9.032;2023-02-01T02:24:28;2.10;91.30
37322;DHT22;23697;48.684;9.032;2023-02-01T02:27:05;2.20;91.30
37322;DHT22;23697;48.684;9.032;2023-02-01T02:35:50;2.10;91.30
37322;DHT22;23697;48.684;9.032;2023-02-01T02:38:28;2.10;91.30
37322;DHT22;23697;48.684;9.032;2023-02-01T02:41:05;2.20;91.30
37322;DHT22;23697;48.684;9.032;2023-02-01T02:43:37;2.20;91.30
37322;DHT22;23697;48.684;9.032;2023-02-01T02:46:31;2.30;91.30
37322;DHT22;23697;48.684;9.032;2023-02-01T02:49:22;2.30;91.30
37322;DHT22;23697;48.684;9.032;2023-02-01T02:51:54;2.30;91.30
37322;DHT22;23697;48.684;9.032;2023-02-01T02:54:42;2.30;91.30
37322;DHT22;23697;48.684;9.032;2023-02-01T02:57:17;2.30;91.30
37322;DHT22;23697;48.684;9.032;2023-02-01T03:00:05;2.30;91.30
37322;DHT22;23697;48.684;9.032;2023-02-01T03:02:50;2.20;91.30
37322;DHT22;23697;48.684;9.032;2023-02-01T03:05:36;2.30;91.20
37322;DHT22;23697;48.684;9.032;2023-02-01T03:08:11;2.30;91.30
37322;DHT22;23697;48.684;9.032;2023-02-01T03:10:44;2.30;91.20
37322;DHT22;23697;48.684;9.032;2023-02-01T03:13:19;2.30;91.20
37322;DHT22;23697;48.684;9.032;2023-02-01T03:15:51;2.30;91.20
37322;DHT22;23697;48.684;9.032;2023-02-01T03:18:24;2.40;91.20
37322;DHT22;23697;48.684;9.032;2023-02-01T03:20:53;2.30;91.20
37322;DHT22;23697;48.684;9.032;2023-02-01T03:23:25;2.30;91.20
37322;DHT22;23697;48.684;9.032;2023-02-01T03:25:55;2.20;91.20
37322;DHT22;23697;48.684;9.032;2023-02-01T03:28:25;2.30;91.30
37322;DHT22;23697;48.684;9.032;2023-02-01T03:30:54;2.20;91.20
37322;DHT22;23697;48.684;9.032;2023-02-01T03:33:23;2.30;91.30
37322;DHT22;23697;48.684;9.032;2023-02-01T03:35:59;2.30;91.30
37322;DHT22;23697;48.684;9.032;2023-02-01T03:38:31;2.30;91.30
37322;DHT22;23697;48.684;9.032;2023-02-01T03:41:03;2.30;91.30
37322;DHT22;23697;48.684;9.032;2023-02-01T03:43:41;2.40;91.30
37322;DHT22;23697;48.684;9.032;2023-02-01T03:46:12;2.30;91.30
37322;DHT22;23697;48.684;9.032;2023-02-01T03:48:41;2.30;91.30
37322;DHT22;23697;48.684;9.032;2023-02-01T03:51:10;2.30;91.30
37322;DHT22;23697;48.684;9.032;2023-02-01T03:53:40;2.40;91.30
37322;DHT22;23697;48.684;9.032;2023-02-01T03:56:11;2.40;91.30
37322;DHT22;23697;48.684;9.032;2023-02-01T03:58:38;2.30;91.30
37322;DHT22;23697;48.684;9.032;2023-02-01T04:01:05;2.30;91.30
37322;DHT22;23697;48.684;9.032;2023-02-01T04:03:32;2.40;91.30
37322;DHT22;23697;48.684;9.032;2023-02-01T04:05:59;2.40;91.30
37322;DHT22;23697;48.684;9.032;2023-02-01T04:08:26;2.30;91.30
37322;DHT22;23697;48.684;9.032;2023-02-01T04:10:54;2.30;91.30
37322;DHT22;23697;48.684;9.032;2023-02-01T04:13:21;2.40;91.30
37322;DHT22;23697;48.684;9.032;2023-02-01T04:15:48;2.40;91.30
37322;DHT22;23697;48.684;9.032;2023-02-01T04:18:16;2.30;91.30
37322;DHT22;23697;48.684;9.032;2023-02-01T04:20:43;2.30;91.30
37322;DHT22;23697;48.684;9.032;2023-02-01T04:23:10;2.40;91.30
37322;DHT22;23697;48.684;9.032;2023-02-01T04:25:37;2.40;91.30
37322;DHT22;23697;48.684;9.032;2023-02-01T04:28:06;2.50;91.30
37322;DHT22;23697;48.684;9.032;2023-02-01T04:30:33;2.40;91.30
37322;DHT22;23697;48.684;9.032;2023-02-01T04:33:00;2.40;91.30
37322;DHT22;23697;48.684;9.032;2023-02-01T04:35:29;2.40;91.30
37322;DHT22;23697;48.684;9.032;2023-02-01T04:37:56;2.50;91.30
37322;DHT22;23697;48.684;9.032;2023-02-01T04:40:23;2.40;91.20
37322;DHT22;23697;48.684;9.032;2023-02-01T04:42:49;2.50;91.20
37322;DHT22;23697;48.684;9.032;2023-02-01T04:45:18;2.50;91.20
37322;DHT22;23697;48.684;9.032;2023-02-01T04:47:44;2.40;91.20
37322;DHT22;23697;48.684;9.032;2023-02-01T04:50:11;2.50;91.20
37322;DHT22;23697;48.684;9.032;2023-02-01T04:52:38;2.40;91.10
37322;DHT22;23697;48.684;9.032;2023-02-01T04:55:06;2.40;91.10
37322;DHT22;23697;48.684;9.032;2023-02-01T04:57:33;2.40;91.00
37322;DHT22;23697;48.684;9.032;2023-02-01T05:00:00;2.40;91.10
37322;DHT22;23697;48.684;9.032;2023-02-01T05:02:28;2.40;91.10
37322;DHT22;23697;48.684;9.032;2023-02-01T05:04:55;2.50;91.10
37322;DHT22;23697;48.684;9.032;2023-02-01T05:07:21;2.50;91.00
37322;DHT22;23697;48.684;9.032;2023-02-01T05:09:49;2.50;91.00
37322;DHT22;23697;48.684;9.032;2023-02-01T05:12:16;2.50;91.00
37322;DHT22;23697;48.684;9.032;2023-02-01T05:15:01;2.50;90.90
37322;DHT22;23697;48.684;9.032;2023-02-01T05:17:29;2.50;91.00
37322;DHT22;23697;48.684;9.032;2023-02-01T05:19:56;2.50;90.90
37322;DHT22;23697;48.684;9.032;2023-02-01T05:22:22;2.40;90.90
37322;DHT22;23697;48.684;9.032;2023-02-01T05:24:49;2.40;90.90
37322;DHT22;23697;48.684;9.032;2023-02-01T05:27:16;2.40;90.90
37322;DHT22;23697;48.684;9.032;2023-02-01T05:29:43;2.50;90.90
37322;DHT22;23697;48.684;9.032;2023-02-01T05:32:10;2.50;90.90
37322;DHT22;23697;48.684;9.032;2023-02-01T05:34:38;2.50;90.80
37322;DHT22;23697;48.684;9.032;2023-02-01T05:37:05;2.50;90.80
37322;DHT22;23697;48.684;9.032;2023-02-01T05:39:32;2.50;90.80
37322;DHT22;23697;48.684;9.032;2023-02-01T05:41:59;2.60;90.70
37322;DHT22;23697;48.684;9.032;2023-02-01T05:44:26;2.50;90.70
37322;DHT22;23697;48.684;9.032;2023-02-01T05:46:52;2.60;90.70
37322;DHT22;23697;48.684;9.032;2023-02-01T05:49:19;2.60;90.70
37322;DHT22;23697;48.684;9.032;2023-02-01T05:51:47;2.60;90.60
37322;DHT22;23697;48.684;9.032;2023-02-01T05:54:14;2.50;90.60
37322;DHT22;23697;48.684;9.032;2023-02-01T05:56:41;2.60;90.60
37322;DHT22;23697;48.684;9.032;2023-02-01T05:59:09;2.50;90.60
37322;DHT22;23697;48.684;9.032;2023-02-01T06:01:36;2.60;90.70
37322;DHT22;23697;48.684;9.032;2023-02-01T06:04:03;2.60;90.70
37322;DHT22;23697;48.684;9.032;2023-02-01T06:06:29;2.50;90.70
37322;DHT22;23697;48.684;9.032;2023-02-01T06:08:58;2.50;90.70
37322;DHT22;23697;48.684;9.032;2023-02-01T06:11:25;2.50;90.80
37322;DHT22;23697;48.684;9.032;2023-02-01T06:13:53;2.50;90.80
37322;DHT22;23697;48.684;9.032;2023-02-01T06:16:20;2.60;90.80
37322;DHT22;23697;48.684;9.032;2023-02-01T06:18:48;2.60;90.80
37322;DHT22;23697;48.684;9.032;2023-02-01T06:21:15;2.70;90.80
37322;DHT22;23697;48.684;9.032;2023-02-01T06:23:49;2.70;90.80
37322;DHT22;23697;48.684;9.032;2023-02-01T06:26:17;2.70;90.80
37322;DHT22;23697;48.684;9.032;2023-02-01T06:28:44;2.70;90.80
37322;DHT22;23697;48.684;9.032;2023-02-01T06:31:11;2.60;90.80
37322;DHT22;23697;48.684;9.032;2023-02-01T06:33:39;2.60;90.80
37322;DHT22;23697;48.684;9.032;2023-02-01T06:36:09;2.60;90.80
37322;DHT22;23697;48.684;9.032;2023-02-01T06:38:36;2.60;90.80
37322;DHT22;23697;48.684;9.032;2023-02-01T06:41:05;2.60;90.80
37322;DHT22;23697;48.684;9.032;2023-02-01T06:43:33;2.60;90.80
37322;DHT22;23697;48.684;9.032;2023-02-01T06:46:01;2.60;90.80
37322;DHT22;23697;48.684;9.032;2023-02-01T06:48:28;2.50;90.80
37322;DHT22;23697;48.684;9.032;2023-02-01T06:50:55;2.50;90.80
37322;DHT22;23697;48.684;9.032;2023-02-01T06:53:22;2.60;90.80
37322;DHT22;23697;48.684;9.032;2023-02-01T06:55:52;2.60;90.80
37322;DHT22;23697;48.684;9.032;2023-02-01T06:58:19;2.60;90.80
37322;DHT22;23697;48.684;9.032;2023-02-01T07:00:47;2.60;90.70
37322;DHT22;23697;48.684;9.032;2023-02-01T07:03:15;2.60;90.70
37322;DHT22;23697;48.684;9.032;2023-02-01T07:05:42;2.70;90.80
37322;DHT22;23697;48.684;9.032;2023-02-01T07:08:09;2.60;90.70
37322;DHT22;23697;48.684;9.032;2023-02-01T07:10:35;2.60;90.70
37322;DHT22;23697;48.684;9.032;2023-02-01T07:13:02;2.60;90.70
37322;DHT22;23697;48.684;9.032;2023-02-01T07:15:29;2.70;90.70
37322;DHT22;23697;48.684;9.032;2023-02-01T07:17:57;2.60;90.60
37322;DHT22;23697;48.684;9.032;2023-02-01T07:20:24;2.70;90.70
37322;DHT22;23697;48.684;9.032;2023-02-01T07:22:55;2.70;90.60
37322;DHT22;23697;48.684;9.032;2023-02-01T07:25:22;2.60;90.60
37322;DHT22;23697;48.684;9.032;2023-02-01T07:27:49;2.60;90.60
37322;DHT22;23697;48.684;9.032;2023-02-01T07:30:17;2.70;90.60
37322;DHT22;23697;48.684;9.032;2023-02-01T07:32:44;2.80;90.60
37322;DHT22;23697;48.684;9.032;2023-02-01T07:35:12;2.80;90.40
37322;DHT22;23697;48.684;9.032;2023-02-01T07:37:39;2.80;90.40
37322;DHT22;23697;48.684;9.032;2023-02-01T07:40:07;2.80;90.40
37322;DHT22;23697;48.684;9.032;2023-02-01T07:42:34;2.80;90.40
37322;DHT22;23697;48.684;9.032;2023-02-01T07:45:01;2.80;90.40
37322;DHT22;23697;48.684;9.032;2023-02-01T07:47:31;2.80;90.40
37322;DHT22;23697;48.684;9.032;2023-02-01T07:49:58;2.70;90.40
37322;DHT22;23697;48.684;9.032;2023-02-01T07:52:27;2.80;90.40
37322;DHT22;23697;48.684;9.032;2023-02-01T07:54:54;2.80;90.40
37322;DHT22;23697;48.684;9.032;2023-02-01T07:57:21;2.80;90.40
37322;DHT22;23697;48.684;9.032;2023-02-01T07:59:47;2.90;90.40
37322;DHT22;23697;48.684;9.032;2023-02-01T08:02:32;2.80;90.40
37322;DHT22;23697;48.684;9.032;2023-02-01T08:04:59;2.90;90.40
37322;DHT22;23697;48.684;9.032;2023-02-01T08:07:27;2.90;90.20
37322;DHT22;23697;48.684;9.032;2023-02-01T08:09:54;3.00;90.20
37322;DHT22;23697;48.684;9.032;2023-02-01T08:12:22;3.00;90.10
37322;DHT22;23697;48.684;9.032;2023-02-01T08:14:48;3.00;90.10
37322;DHT22;23697;48.684;9.032;2023-02-01T08:17:15;3.00;90.00
37322;DHT22;23697;48.684;9.032;2023-02-01T08:19:42;3.00;90.00
37322;DHT22;23697;48.684;9.032;2023-02-01T08:22:09;3.00;89.90
37322;DHT22;23697;48.684;9.032;2023-02-01T08:24:37;3.00;89.90
37322;DHT22;23697;48.684;9.032;2023-02-01T08:27:06;3.10;89.90
37322;DHT22;23697;48.684;9.032;2023-02-01T08:29:32;3.10;89.80
37322;DHT22;23697;48.684;9.032;2023-02-01T08:31:59;3.10;89.80
37322;DHT22;23697;48.684;9.032;2023-02-01T08:34:26;3.10;89.80
37322;DHT22;23697;48.684;9.032;2023-02-01T08:36:53;3.10;89.80
37322;DHT22;23697;48.684;9.032;2023-02-01T08:39:24;3.10;89.80
37322;DHT22;23697;48.684;9.032;2023-02-01T08:41:52;3.10;89.80
37322;DHT22;23697;48.684;9.032;2023-02-01T08:44:33;3.20;89.80
37322;DHT22;23697;48.684;9.032;2023-02-01T08:46:59;3.20;89.80
37322;DHT22;23697;48.684;9.032;2023-02-01T08:49:26;3.30;89.70
37322;DHT22;23697;48.684;9.032;2023-02-01T08:51:53;3.40;89.70
37322;DHT22;23697;48.684;9.032;2023-02-01T08:54:21;3.40;89.60
37322;DHT22;23697;48.684;9.032;2023-02-01T08:56:48;3.40;89.50
37322;DHT22;23697;48.684;9.032;2023-02-01T08:59:18;3.40;89.50
37322;DHT22;23697;48.684;9.032;2023-02-01T09:01:45;3.40;89.50
37322;DHT22;23697;48.684;9.032;2023-02-01T09:04:12;3.50;89.30
37322;DHT22;23697;48.684;9.032;2023-02-01T09:06:40;3.40;89.20
37322;DHT22;23697;48.684;9.032;2023-02-01T09:09:07;3.50;89.10
37322;DHT22;23697;48.684;9.032;2023-02-01T09:11:34;3.40;88.90
37322;DHT22;23697;48.684;9.032;2023-02-01T09:14:01;3.40;89.00
37322;DHT22;23697;48.684;9.032;2023-02-01T09:16:29;3.30;89.00
37322;DHT22;23697;48.684;9.032;2023-02-01T09:18:56;3.40;88.90
37322;DHT22;23697;48.684;9.032;2023-02-01T09:21:23;3.30;88.90
37322;DHT22;23697;48.684;9.032;2023-02-01T09:23:50;3.40;88.70
37322;DHT22;23697;48.684;9.032;2023-02-01T09:26:17;3.40;88.70
37322;DHT22;23697;48.684;9.032;2023-02-01T09:28:44;3.30;88.70
37322;DHT22;23697;48.684;9.032;2023-02-01T09:31:11;3.40;88.70
37322;DHT22;23697;48.684;9.032;2023-02-01T09:33:39;3.40;88.70
37322;DHT22;23697;48.684;9.032;2023-02-01T09:36:07;3.40;88.70
37322;DHT22;23697;48.684;9.032;2023-02-01T09:38:33;3.40;88.70
37322;DHT22;23697;48.684;9.032;2023-02-01T09:41:00;3.40;88.60
37322;DHT22;23697;48.684;9.032;2023-02-01T09:43:38;3.40;88.50
37322;DHT22;23697;48.684;9.032;2023-02-01T09:46:18;3.60;88.50
37322;DHT22;23697;48.684;9.032;2023-02-01T09:48:49;3.60;88.20
37322;DHT22;23697;48.684;9.032;2023-02-01T09:51:20;3.70;88.20
37322;DHT22;23697;48.684;9.032;2023-02-01T09:53:56;3.80;87.80
37322;DHT22;23697;48.684;9.032;2023-02-01T09:56:29;3.90;87.40
37322;DHT22;23697;48.684;9.032;2023-02-01T09:59:08;3.90;87.30
37322;DHT22;23697;48.684;9.032;2023-02-01T10:01:37;4.00;87.20
37322;DHT22;23697;48.684;9.032;2023-02-01T10:04:08;4.10;87.00
37322;DHT22;23697;48.684;9.032;2023-02-01T10:06:49;4.10;87.10
37322;DHT22;23697;48.684;9.032;2023-02-01T10:09:29;4.10;86.80
37322;DHT22;23697;48.684;9.032;2023-02-01T10:12:17;4.10;86.60
37322;DHT22;23697;48.684;9.032;2023-02-01T10:14:59;4.10;86.40
37322;DHT22;23697;48.684;9.032;2023-02-01T10:17:37;4.30;86.10
37322;DHT22;23697;48.684;9.032;2023-02-01T10:20:15;4.30;85.80
37322;DHT22;23697;48.684;9.032;2023-02-01T10:22:54;4.40;85.30
37322;DHT22;23697;48.684;9.032;2023-02-01T10:25:27;4.40;84.60
37322;DHT22;23697;48.684;9.032;2023-02-01T10:27:57;4.30;84.40
37322;DHT22;23697;48.684;9.032;2023-02-01T10:30:30;4.40;84.30
37322;DHT22;23697;48.684;9.032;2023-02-01T10:33:12;4.30;84.30
37322;DHT22;23697;48.684;9.032;2023-02-01T10:39:05;4.30;84.10
37322;DHT22;23697;48.684;9.032;2023-02-01T10:41:35;4.30;83.60
37322;DHT22;23697;48.684;9.032;2023-02-01T10:44:04;4.30;83.40
37322;DHT22;23697;48.684;9.032;2023-02-01T10:46:34;4.30;83.60
37322;DHT22;23697;48.684;9.032;2023-02-01T10:49:13;4.40;83.90
37322;DHT22;23697;48.684;9.032;2023-02-01T10:51:45;4.40;83.60
37322;DHT22;23697;48.684;9.032;2023-02-01T10:54:17;4.40;83.60
37322;DHT22;23697;48.684;9.032;2023-02-01T10:56:46;4.40;83.00
37322;DHT22;23697;48.684;9.032;2023-02-01T10:59:16;4.40;82.90
37322;DHT22;23697;48.684;9.032;2023-02-01T11:01:48;4.40;82.70
37322;DHT22;23697;48.684;9.032;2023-02-01T11:04:16;4.40;82.20
37322;DHT22;23697;48.684;9.032;2023-02-01T11:06:48;4.50;82.20
37322;DHT22;23697;48.684;9.032;2023-02-01T11:09:19;4.50;82.00
37322;DHT22;23697;48.684;9.032;2023-02-01T11:11:55;4.50;82.00
37322;DHT22;23697;48.684;9.032;2023-02-01T11:14:28;4.50;81.50
37322;DHT22;23697;48.684;9.032;2023-02-01T11:17:01;4.60;81.50
37322;DHT22;23697;48.684;9.032;2023-02-01T11:19:29;4.50;80.60
37322;DHT22;23697;48.684;9.032;2023-02-01T11:21:58;4.60;79.90
37322;DHT22;23697;48.684;9.032;2023-02-01T11:24:31;4.60;79.90
37322;DHT22;23697;48.684;9.032;2023-02-01T11:27:00;4.60;79.30
37322;DHT22;23697;48.684;9.032;2023-02-01T11:29:30;4.60;79.20
37322;DHT22;23697;48.684;9.032;2023-02-01T11:31:59;4.70;79.40
37322;DHT22;23697;48.684;9.032;2023-02-01T11:34:38;4.70;79.80
37322;DHT22;23697;48.684;9.032;2023-02-01T11:37:14;4.60;78.70
37322;DHT22;23697;48.684;9.032;2023-02-01T11:39:54;4.60;78.80
37322;DHT22;23697;48.684;9.032;2023-02-01T11:42:21;4.60;79.10
37322;DHT22;23697;48.684;9.032;2023-02-01T11:44:48;4.60;79.20
37322;DHT22;23697;48.684;9.032;2023-02-01T11:47:20;4.60;79.00
37322;DHT22;23697;48.684;9.032;2023-02-01T11:49:49;4.60;79.30
37322;DHT22;23697;48.684;9.032;2023-02-01T11:52:28;4.60;79.30
37322;DHT22;23697;48.684;9.032;2023-02-01T11:55:10;4.60;79.00
37322;DHT22;23697;48.684;9.032;2023-02-01T11:57:51;4.50;79.20
37322;DHT22;23697;48.684;9.032;2023-02-01T12:00:40;4.50;79.40
37322;DHT22;23697;48.684;9.032;2023-02-01T12:03:41;4.50;79.10
37322;DHT22;23697;48.684;9.032;2023-02-01T12:06:19;4.50;79.20
37322;DHT22;23697;48.684;9.032;2023-02-01T12:09:01;4.50;79.80
37322;DHT22;23697;48.684;9.032;2023-02-01T12:11:46;4.50;79.60
37322;DHT22;23697;48.684;9.032;2023-02-01T12:14:27;4.50;79.10
37322;DHT22;23697;48.684;9.032;2023-02-01T12:17:13;4.50;78.50
37322;DHT22;23697;48.684;9.032;2023-02-01T12:20:04;4.40;78.10
37322;DHT22;23697;48.684;9.032;2023-02-01T12:22:36;4.50;78.50
37322;DHT22;23697;48.684;9.032;2023-02-01T12:25:31;4.50;78.70
37322;DHT22;23697;48.684;9.032;2023-02-01T12:28:21;4.40;78.60
37322;DHT22;23697;48.684;9.032;2023-02-01T12:31:15;4.40;78.40
37322;DHT22;23697;48.684;9.032;2023-02-01T12:34:00;4.50;77.70
37322;DHT22;23697;48.684;9.032;2023-02-01T12:36:35;4.50;78.30
37322;DHT22;23697;48.684;9.032;2023-02-01T12:39:15;4.50;78.10
37322;DHT22;23697;48.684;9.032;2023-02-01T12:41:50;4.50;77.80
37322;DHT22;23697;48.684;9.032;2023-02-01T12:44:32;4.40;78.40
37322;DHT22;23697;48.684;9.032;2023-02-01T12:47:05;4.40;78.10
37322;DHT22;23697;48.684;9.032;2023-02-01T12:49:48;4.40;78.40
37322;DHT22;23697;48.684;9.032;2023-02-01T12:52:21;4.40;78.00
37322;DHT22;23697;48.684;9.032;2023-02-01T12:54:55;4.40;77.30
37322;DHT22;23697;48.684;9.032;2023-02-01T12:57:26;4.40;77.70
37322;DHT22;23697;48.684;9.032;2023-02-01T13:00:05;4.50;78.00
37322;DHT22;23697;48.684;9.032;2023-02-01T13:02:39;4.50;78.40
37322;DHT22;23697;48.684;9.032;2023-02-01T13:05:14;4.50;78.30
37322;DHT22;23697;48.684;9.032;2023-02-01T13:07:45;4.40;78.50
37322;DHT22;23697;48.684;9.032;2023-02-01T13:10:18;4.40;78.30
37322;DHT22;23697;48.684;9.032;2023-02-01T13:12:51;4.40;78.10
37322;DHT22;23697;48.684;9.032;2023-02-01T13:15:24;4.40;78.40
37322;DHT22;23697;48.684;9.032;2023-02-01T13:17:55;4.40;78.00
37322;DHT22;23697;48.684;9.032;2023-02-01T13:20:29;4.50;78.40
37322;DHT22;23697;48.684;9.032;2023-02-01T13:23:02;4.40;78.20
37322;DHT22;23697;48.684;9.032;2023-02-01T13:25:35;4.50;78.60
37322;DHT22;23697;48.684;9.032;2023-02-01T13:28:06;4.50;78.70
37322;DHT22;23697;48.684;9.032;2023-02-01T13:31:03;4.60;78.60
37322;DHT22;23697;48.684;9.032;2023-02-01T13:33:42;4.50;78.60
37322;DHT22;23697;48.684;9.032;2023-02-01T13:36:24;4.60;79.10
37322;DHT22;23697;48.684;9.032;2023-02-01T13:42:14;4.50;79.20
37322;DHT22;23697;48.684;9.032;2023-02-01T13:44:45;4.50;79.10
37322;DHT22;23697;48.684;9.032;2023-02-01T13:47:21;4.50;79.10
37322;DHT22;23697;48.684;9.032;2023-02-01T13:49:50;4.50;79.30
37322;DHT22;23697;48.684;9.032;2023-02-01T13:52:25;4.50;79.60
37322;DHT22;23697;48.684;9.032;2023-02-01T13:55:15;4.50;79.60
37322;DHT22;23697;48.684;9.032;2023-02-01T13:57:43;4.50;79.90
37322;DHT22;23697;48.684;9.032;2023-02-01T14:00:24;4.50;79.30
37322;DHT22;23697;48.684;9.032;2023-02-01T14:03:09;4.50;79.50
37322;DHT22;23697;48.684;9.032;2023-02-01T14:05:59;4.50;79.20
37322;DHT22;23697;48.684;9.032;2023-02-01T14:08:39;4.50;79.40
37322;DHT22;23697;48.684;9.032;2023-02-01T14:11:06;4.50;79.10
37322;DHT22;23697;48.684;9.032;2023-02-01T14:13:34;4.50;79.40
37322;DHT22;23697;48.684;9.032;2023-02-01T14:16:15;4.50;79.40
37322;DHT22;23697;48.684;9.032;2023-02-01T14:18:56;4.50;79.00
37322;DHT22;23697;48.684;9.032;2023-02-01T14:21:26;4.50;79.60
37322;DHT22;23697;48.684;9.032;2023-02-01T14:23:58;4.40;78.80
37322;DHT22;23697;48.684;9.032;2023-02-01T14:26:27;4.50;79.10
37322;DHT22;23697;48.684;9.032;2023-02-01T14:29:00;4.50;78.50
37322;DHT22;23697;48.684;9.032;2023-02-01T14:31:52;4.50;78.90
37322;DHT22;23697;48.684;9.032;2023-02-01T14:34:28;4.50;78.90
37322;DHT22;23697;48.684;9.032;2023-02-01T14:36:58;4.50;79.20
37322;DHT22;23697;48.684;9.032;2023-02-01T14:42:24;4.40;79.00
37322;DHT22;23697;48.684;9.032;2023-02-01T14:44:52;4.50;79.10
37322;DHT22;23697;48.684;9.032;2023-02-01T14:47:34;4.40;79.20
37322;DHT22;23697;48.684;9.032;2023-02-01T14:50:33;4.40;79.00
37322;DHT22;23697;48.684;9.032;2023-02-01T14:53:18;4.40;79.20
37322;DHT22;23697;48.684;9.032;2023-02-01T14:55:51;4.40;79.10
37322;DHT22;23697;48.684;9.032;2023-02-01T14:58:29;4.40;79.30
37322;DHT22;23697;48.684;9.032;2023-02-01T15:01:01;4.40;79.00
37322;DHT22;23697;48.684;9.032;2023-02-01T15:03:43;4.50;79.10
37322;DHT22;23697;48.684;9.032;2023-02-01T15:06:25;4.40;79.10
37322;DHT22;23697;48.684;9.032;2023-02-01T15:08:56;4.40;78.90
37322;DHT22;23697;48.684;9.032;2023-02-01T15:11:23;4.40;78.90
37322;DHT22;23697;48.684;9.032;2023-02-01T15:13:52;4.40;79.20
37322;DHT22;23697;48.684;9.032;2023-02-01T15:16:22;4.40;79.20
37322;DHT22;23697;48.684;9.032;2023-02-01T15:18:49;4.50;79.10
37322;DHT22;23697;48.684;9.032;2023-02-01T15:21:18;4.50;79.00
37322;DHT22;23697;48.684;9.032;2023-02-01T15:23:47;4.50;79.30
37322;DHT22;23697;48.684;9.032;2023-02-01T15:26:27;4.40;79.50
37322;DHT22;23697;48.684;9.032;2023-02-01T15:28:56;4.40;79.20
37322;DHT22;23697;48.684;9.032;2023-02-01T15:31:34;4.40;79.00
37322;DHT22;23697;48.684;9.032;2023-02-01T15:34:02;4.40;79.30
37322;DHT22;23697;48.684;9.032;2023-02-01T15:36:29;4.50;79.60
37322;DHT22;23697;48.684;9.032;2023-02-01T15:39:19;4.40;80.00
37322;DHT22;23697;48.684;9.032;2023-02-01T15:41:50;4.40;81.10
37322;DHT22;23697;48.684;9.032;2023-02-01T15:44:30;4.40;81.30
37322;DHT22;23697;48.684;9.032;2023-02-01T15:47:16;4.30;81.60
37322;DHT22;23697;48.684;9.032;2023-02-01T15:49:45;4.30;81.60
37322;DHT22;23697;48.684;9.032;2023-02-01T15:52:21;4.30;81.40
37322;DHT22;23697;48.684;9.032;2023-02-01T15:54:52;4.30;81.70
37322;DHT22;23697;48.684;9.032;2023-02-01T15:57:23;4.20;81.80
37322;DHT22;23697;48.684;9.032;2023-02-01T15:59:57;4.20;81.70
37322;DHT22;23697;48.684;9.032;2023-02-01T16:02:26;4.20;81.90
37322;DHT22;23697;48.684;9.032;2023-02-01T16:04:54;4.10;81.80
37322;DHT22;23697;48.684;9.032;2023-02-01T16:07:26;4.20;80.90
37322;DHT22;23697;48.684;9.032;2023-02-01T16:09:56;4.20;80.90
37322;DHT22;23697;48.684;9.032;2023-02-01T16:12:32;4.20;81.20
37322;DHT22;23697;48.684;9.032;2023-02-01T16:15:00;4.20;81.10
37322;DHT22;23697;48.684;9.032;2023-02-01T16:17:27;4.10;81.20
37322;DHT22;23697;48.684;9.032;2023-02-01T16:19:54;4.10;81.40
37322;DHT22;23697;48.684;9.032;2023-02-01T16:22:22;4.10;81.00
37322;DHT22;23697;48.684;9.032;2023-02-01T16:24:49;4.10;81.20
37322;DHT22;23697;48.684;9.032;2023-02-01T16:27:17;4.10;81.10
37322;DHT22;23697;48.684;9.032;2023-02-01T16:29:44;4.00;81.20